sensor_id;sensor_type;location;lat;lon;timestamp;P1;durP1;ratioP1;P2;durP2;ratioP2
70342;SDS011;57767;42.068;24.752;2023-02-01T00:00:31;2.97;;;2.30;;
70342;SDS011;57767;42.068;24.752;2023-02-01T00:01:34;3.60;;;2.65;;
70342;SDS011;57767;42.068;24.752;2023-02-01T00:02:36;5.55;;;2.22;;
70342;SDS011;57767;42.068;24.752;2023-02-01T00:03:41;3.83;;;2.40;;
70342;SDS011;57767;42.068;24.752;2023-02-01T00:04:42;3.33;;;2.30;;
70342;SDS011;57767;42.068;24.752;2023-02-01T00:05:44;2.33;;;2.00;;
70342;SDS011;57767;42.068;24.752;2023-02-01T00:06:55;4.38;;;2.70;;
70342;SDS011;57767;42.068;24.752;2023-02-01T00:07:57;3.60;;;2.50;;
70342;SDS011;57767;42.068;24.752;2023-02-01T00:08:59;3.35;;;2.50;;
70342;SDS011;57767;42.068;24.752;2023-02-01T00:10:00;2.85;;;2.47;;
70342;SDS011;57767;42.068;24.752;2023-02-01T00:11:06;3.83;;;2.30;;
70342;SDS011;57767;42.068;24.752;2023-02-01T00:12:10;4.00;;;2.55;;
70342;SDS011;57767;42.068;24.752;2023-02-01T00:13:12;4.68;;;2.50;;
70342;SDS011;57767;42.068;24.752;2023-02-01T00:14:13;2.75;;;2.08;;
70342;SDS011;57767;42.068;24.752;2023-02-01T00:15:15;4.15;;;2.28;;
70342;SDS011;57767;42.068;24.752;2023-02-01T00:16:18;3.47;;;2.40;;
70342;SDS011;57767;42.068;24.752;2023-02-01T00:17:22;2.85;;;2.30;;
70342;SDS011;57767;42.068;24.752;2023-02-01T00:18:24;4.35;;;2.30;;
70342;SDS011;57767;42.068;24.752;2023-02-01T00:19:25;4.05;;;2.50;;
70342;SDS011;57767;42.068;24.752;2023-02-01T00:20:27;3.35;;;2.70;;
70342;SDS011;57767;42.068;24.752;2023-02-01T00:21:29;3.78;;;2.30;;
70342;SDS011;57767;42.068;24.752;2023-02-01T00:22:31;3.55;;;2.50;;
70342;SDS011;57767;42.068;24.752;2023-02-01T00:23:34;4.45;;;2.72;;
70342;SDS011;57767;42.068;24.752;2023-02-01T00:24:37;3.90;;;2.70;;
70342;SDS011;57767;42.068;24.752;2023-02-01T00:25:38;5.13;;;2.75;;
70342;SDS011;57767;42.068;24.752;2023-02-01T00:26:42;3.05;;;2.38;;
70342;SDS011;57767;42.068;24.752;2023-02-01T00:27:49;4.55;;;3.00;;
70342;SDS011;57767;42.068;24.752;2023-02-01T00:28:51;4.68;;;2.80;;
70342;SDS011;57767;42.068;24.752;2023-02-01T00:29:56;4.40;;;2.85;;
70342;SDS011;57767;42.068;24.752;2023-02-01T00:30:58;3.97;;;2.45;;
70342;SDS011;57767;42.068;24.752;2023-02-01T00:32:01;5.20;;;2.60;;
70342;SDS011;57767;42.068;24.752;2023-02-01T00:33:03;2.88;;;2.30;;
70342;SDS011;57767;42.068;24.752;2023-02-01T00:34:04;3.60;;;2.55;;
70342;SDS011;57767;42.068;24.752;2023-02-01T00:35:07;4.55;;;2.75;;
70342;SDS011;57767;42.068;24.752;2023-02-01T00:36:09;4.30;;;2.80;;
70342;SDS011;57767;42.068;24.752;2023-02-01T00:37:11;4.10;;;2.60;;
70342;SDS011;57767;42.068;24.752;2023-02-01T00:38:13;3.55;;;2.15;;
70342;SDS011;57767;42.068;24.752;2023-02-01T00:39:15;4.15;;;2.90;;
70342;SDS011;57767;42.068;24.752;2023-02-01T00:40:17;4.15;;;2.80;;
70342;SDS011;57767;42.068;24.752;2023-02-01T00:41:19;2.97;;;2.25;;
70342;SDS011;57767;42.068;24.752;2023-02-01T00:42:22;2.78;;;2.20;;
70342;SDS011;57767;42.068;24.752;2023-02-01T00:43:24;2.88;;;2.20;;
70342;SDS011;57767;42.068;24.752;2023-02-01T00:44:25;3.03;;;2.20;;
70342;SDS011;57767;42.068;24.752;2023-02-01T00:45:28;2.58;;;2.20;;
70342;SDS011;57767;42.068;24.752;2023-02-01T00:46:30;3.25;;;2.50;;
70342;SDS011;57767;42.068;24.752;2023-02-01T00:47:32;3.55;;;2.28;;
70342;SDS011;57767;42.068;24.752;2023-02-01T00:48:33;4.43;;;2.40;;
70342;SDS011;57767;42.068;24.752;2023-02-01T00:49:35;3.33;;;2.30;;
70342;SDS011;57767;42.068;24.752;2023-02-01T00:50:41;4.40;;;2.60;;
70342;SDS011;57767;42.068;24.752;2023-02-01T00:51:43;2.95;;;2.42;;
70342;SDS011;57767;42.068;24.752;2023-02-01T00:52:45;4.70;;;2.28;;
70342;SDS011;57767;42.068;24.752;2023-02-01T00:53:47;2.75;;;2.30;;
70342;SDS011;57767;42.068;24.752;2023-02-01T00:54:49;3.10;;;2.42;;
70342;SDS011;57767;42.068;24.752;2023-02-01T00:55:50;4.35;;;2.60;;
70342;SDS011;57767;42.068;24.752;2023-02-01T00:56:52;4.97;;;3.58;;
70342;SDS011;57767;42.068;24.752;2023-02-01T00:57:54;3.08;;;2.53;;
70342;SDS011;57767;42.068;24.752;2023-02-01T00:58:56;3.83;;;2.65;;
70342;SDS011;57767;42.068;24.752;2023-02-01T00:59:58;4.25;;;2.63;;
70342;SDS011;57767;42.068;24.752;2023-02-01T01:01:04;3.47;;;2.28;;
70342;SDS011;57767;42.068;24.752;2023-02-01T01:02:08;2.80;;;2.30;;
70342;SDS011;57767;42.068;24.752;2023-02-01T01:03:10;3.45;;;2.03;;
70342;SDS011;57767;42.068;24.752;2023-02-01T01:04:20;4.13;;;2.60;;
70342;SDS011;57767;42.068;24.752;2023-02-01T01:05:22;4.75;;;3.15;;
70342;SDS011;57767;42.068;24.752;2023-02-01T01:06:26;3.13;;;2.60;;
70342;SDS011;57767;42.068;24.752;2023-02-01T01:07:30;2.65;;;2.30;;
70342;SDS011;57767;42.068;24.752;2023-02-01T01:08:31;3.28;;;2.25;;
70342;SDS011;57767;42.068;24.752;2023-02-01T01:09:33;2.58;;;1.85;;
70342;SDS011;57767;42.068;24.752;2023-02-01T01:10:35;3.60;;;2.38;;
70342;SDS011;57767;42.068;24.752;2023-02-01T01:11:37;4.55;;;2.42;;
70342;SDS011;57767;42.068;24.752;2023-02-01T01:12:39;3.92;;;2.45;;
70342;SDS011;57767;42.068;24.752;2023-02-01T01:13:42;3.13;;;2.50;;
70342;SDS011;57767;42.068;24.752;2023-02-01T01:14:43;2.35;;;2.00;;
70342;SDS011;57767;42.068;24.752;2023-02-01T01:15:45;4.28;;;2.30;;
70342;SDS011;57767;42.068;24.752;2023-02-01T01:16:47;3.55;;;2.22;;
70342;SDS011;57767;42.068;24.752;2023-02-01T01:17:51;4.53;;;2.40;;
70342;SDS011;57767;42.068;24.752;2023-02-01T01:18:53;3.28;;;2.50;;
70342;SDS011;57767;42.068;24.752;2023-02-01T01:19:56;2.67;;;2.33;;
70342;SDS011;57767;42.068;24.752;2023-02-01T01:21:00;3.17;;;2.30;;
70342;SDS011;57767;42.068;24.752;2023-02-01T01:22:02;5.20;;;2.45;;
70342;SDS011;57767;42.068;24.752;2023-02-01T01:23:04;2.90;;;2.20;;
70342;SDS011;57767;42.068;24.752;2023-02-01T01:24:07;2.80;;;2.03;;
70342;SDS011;57767;42.068;24.752;2023-02-01T01:25:08;2.40;;;2.05;;
70342;SDS011;57767;42.068;24.752;2023-02-01T01:26:17;3.85;;;2.28;;
70342;SDS011;57767;42.068;24.752;2023-02-01T01:27:20;2.10;;;1.92;;
70342;SDS011;57767;42.068;24.752;2023-02-01T01:28:25;3.15;;;2.08;;
70342;SDS011;57767;42.068;24.752;2023-02-01T01:29:27;2.38;;;2.17;;
70342;SDS011;57767;42.068;24.752;2023-02-01T01:30:28;2.70;;;2.10;;
70342;SDS011;57767;42.068;24.752;2023-02-01T01:31:30;3.05;;;2.22;;
70342;SDS011;57767;42.068;24.752;2023-02-01T01:32:33;2.67;;;2.33;;
70342;SDS011;57767;42.068;24.752;2023-02-01T01:33:34;3.75;;;2.00;;
70342;SDS011;57767;42.068;24.752;2023-02-01T01:34:36;4.25;;;2.20;;
70342;SDS011;57767;42.068;24.752;2023-02-01T01:35:38;2.97;;;2.00;;
70342;SDS011;57767;42.068;24.752;2023-02-01T01:36:40;3.35;;;2.10;;
70342;SDS011;57767;42.068;24.752;2023-02-01T01:37:42;4.95;;;2.30;;
70342;SDS011;57767;42.068;24.752;2023-02-01T01:38:43;4.13;;;2.05;;
70342;SDS011;57767;42.068;24.752;2023-02-01T01:39:45;3.03;;;2.45;;
70342;SDS011;57767;42.068;24.752;2023-02-01T01:40:47;3.92;;;2.55;;
70342;SDS011;57767;42.068;24.752;2023-02-01T01:41:51;4.28;;;2.40;;
70342;SDS011;57767;42.068;24.752;2023-02-01T01:42:53;3.88;;;2.20;;
70342;SDS011;57767;42.068;24.752;2023-02-01T01:44:05;3.28;;;2.10;;
70342;SDS011;57767;42.068;24.752;2023-02-01T01:45:28;3.45;;;2.10;;
70342;SDS011;57767;42.068;24.752;2023-02-01T01:46:39;2.42;;;2.20;;
70342;SDS011;57767;42.068;24.752;2023-02-01T01:47:43;2.67;;;2.08;;
70342;SDS011;57767;42.068;24.752;2023-02-01T01:49:02;2.65;;;2.25;;
70342;SDS011;57767;42.068;24.752;2023-02-01T01:51:14;3.30;;;2.25;;
70342;SDS011;57767;42.068;24.752;2023-02-01T01:52:20;3.20;;;2.00;;
70342;SDS011;57767;42.068;24.752;2023-02-01T01:53:23;2.72;;;2.20;;
70342;SDS011;57767;42.068;24.752;2023-02-01T01:54:33;3.25;;;2.33;;
70342;SDS011;57767;42.068;24.752;2023-02-01T01:55:41;2.45;;;2.20;;
70342;SDS011;57767;42.068;24.752;2023-02-01T01:56:47;3.08;;;2.40;;
70342;SDS011;57767;42.068;24.752;2023-02-01T01:57:55;6.03;;;2.78;;
70342;SDS011;57767;42.068;24.752;2023-02-01T01:59:01;2.20;;;2.00;;
70342;SDS011;57767;42.068;24.752;2023-02-01T02:01:13;2.75;;;2.20;;
70342;SDS011;57767;42.068;24.752;2023-02-01T02:02:15;2.30;;;1.88;;
70342;SDS011;57767;42.068;24.752;2023-02-01T02:03:18;2.38;;;2.17;;
70342;SDS011;57767;42.068;24.752;2023-02-01T02:04:21;3.60;;;2.42;;
70342;SDS011;57767;42.068;24.752;2023-02-01T02:05:24;4.25;;;2.13;;
70342;SDS011;57767;42.068;24.752;2023-02-01T02:06:30;3.65;;;2.20;;
70342;SDS011;57767;42.068;24.752;2023-02-01T02:07:53;4.05;;;2.00;;
70342;SDS011;57767;42.068;24.752;2023-02-01T02:08:59;2.63;;;1.90;;
70342;SDS011;57767;42.068;24.752;2023-02-01T02:10:03;3.30;;;2.33;;
70342;SDS011;57767;42.068;24.752;2023-02-01T02:11:07;3.28;;;2.40;;
70342;SDS011;57767;42.068;24.752;2023-02-01T02:12:09;3.17;;;2.33;;
70342;SDS011;57767;42.068;24.752;2023-02-01T02:13:11;2.30;;;2.10;;
70342;SDS011;57767;42.068;24.752;2023-02-01T02:14:15;3.97;;;2.35;;
70342;SDS011;57767;42.068;24.752;2023-02-01T02:15:20;3.20;;;2.20;;
70342;SDS011;57767;42.068;24.752;2023-02-01T02:16:31;2.60;;;2.10;;
70342;SDS011;57767;42.068;24.752;2023-02-01T02:17:49;2.83;;;2.22;;
70342;SDS011;57767;42.068;24.752;2023-02-01T02:20:46;3.17;;;2.38;;
70342;SDS011;57767;42.068;24.752;2023-02-01T02:29:54;5.30;;;2.40;;
70342;SDS011;57767;42.068;24.752;2023-02-01T02:34:47;3.28;;;2.20;;
70342;SDS011;57767;42.068;24.752;2023-02-01T02:36:00;2.47;;;2.28;;
70342;SDS011;57767;42.068;24.752;2023-02-01T02:44:30;2.45;;;2.13;;
70342;SDS011;57767;42.068;24.752;2023-02-01T02:47:31;4.03;;;2.50;;
70342;SDS011;57767;42.068;24.752;2023-02-01T02:48:45;6.60;;;3.75;;
70342;SDS011;57767;42.068;24.752;2023-02-01T02:49:56;6.05;;;2.83;;
70342;SDS011;57767;42.068;24.752;2023-02-01T02:51:26;4.07;;;2.83;;
70342;SDS011;57767;42.068;24.752;2023-02-01T02:52:52;5.95;;;2.95;;
70342;SDS011;57767;42.068;24.752;2023-02-01T02:54:21;7.82;;;3.70;;
70342;SDS011;57767;42.068;24.752;2023-02-01T02:55:44;6.95;;;3.95;;
70342;SDS011;57767;42.068;24.752;2023-02-01T02:56:46;5.10;;;3.47;;
70342;SDS011;57767;42.068;24.752;2023-02-01T02:58:09;4.00;;;2.97;;
70342;SDS011;57767;42.068;24.752;2023-02-01T02:59:32;4.50;;;2.88;;
70342;SDS011;57767;42.068;24.752;2023-02-01T03:00:55;7.63;;;3.70;;
70342;SDS011;57767;42.068;24.752;2023-02-01T03:02:16;8.45;;;3.80;;
70342;SDS011;57767;42.068;24.752;2023-02-01T03:03:38;4.97;;;3.50;;
70342;SDS011;57767;42.068;24.752;2023-02-01T03:04:58;4.28;;;3.35;;
70342;SDS011;57767;42.068;24.752;2023-02-01T03:06:00;5.28;;;3.40;;
70342;SDS011;57767;42.068;24.752;2023-02-01T03:08:41;5.15;;;3.17;;
70342;SDS011;57767;42.068;24.752;2023-02-01T03:09:46;3.92;;;3.13;;
70342;SDS011;57767;42.068;24.752;2023-02-01T03:10:53;4.05;;;3.10;;
70342;SDS011;57767;42.068;24.752;2023-02-01T03:11:56;4.43;;;3.30;;
70342;SDS011;57767;42.068;24.752;2023-02-01T03:14:29;4.85;;;3.58;;
70342;SDS011;57767;42.068;24.752;2023-02-01T03:16:50;3.42;;;3.03;;
70342;SDS011;57767;42.068;24.752;2023-02-01T03:17:55;3.70;;;3.20;;
70342;SDS011;57767;42.068;24.752;2023-02-01T03:20:19;4.60;;;3.50;;
70342;SDS011;57767;42.068;24.752;2023-02-01T03:21:33;5.70;;;3.38;;
70342;SDS011;57767;42.068;24.752;2023-02-01T03:22:41;4.00;;;3.20;;
70342;SDS011;57767;42.068;24.752;2023-02-01T03:23:46;4.03;;;3.10;;
70342;SDS011;57767;42.068;24.752;2023-02-01T03:24:54;4.80;;;3.13;;
70342;SDS011;57767;42.068;24.752;2023-02-01T03:25:59;5.53;;;3.50;;
70342;SDS011;57767;42.068;24.752;2023-02-01T03:27:05;5.88;;;3.47;;
70342;SDS011;57767;42.068;24.752;2023-02-01T03:28:15;3.17;;;2.80;;
70342;SDS011;57767;42.068;24.752;2023-02-01T03:29:23;4.40;;;3.35;;
70342;SDS011;57767;42.068;24.752;2023-02-01T03:30:31;4.07;;;3.42;;
70342;SDS011;57767;42.068;24.752;2023-02-01T03:31:38;3.20;;;2.90;;
70342;SDS011;57767;42.068;24.752;2023-02-01T03:32:40;5.90;;;3.20;;
70342;SDS011;57767;42.068;24.752;2023-02-01T03:34:03;5.32;;;3.30;;
70342;SDS011;57767;42.068;24.752;2023-02-01T03:35:05;6.30;;;3.40;;
70342;SDS011;57767;42.068;24.752;2023-02-01T03:37:12;11.38;;;3.17;;
70342;SDS011;57767;42.068;24.752;2023-02-01T03:38:30;4.70;;;3.67;;
70342;SDS011;57767;42.068;24.752;2023-02-01T03:40:57;5.38;;;3.88;;
70342;SDS011;57767;42.068;24.752;2023-02-01T03:42:20;4.70;;;3.75;;
70342;SDS011;57767;42.068;24.752;2023-02-01T03:43:26;4.95;;;4.32;;
70342;SDS011;57767;42.068;24.752;2023-02-01T03:44:32;6.57;;;4.15;;
70342;SDS011;57767;42.068;24.752;2023-02-01T03:45:41;5.30;;;4.00;;
70342;SDS011;57767;42.068;24.752;2023-02-01T03:46:58;6.25;;;4.57;;
70342;SDS011;57767;42.068;24.752;2023-02-01T03:48:04;4.88;;;3.83;;
70342;SDS011;57767;42.068;24.752;2023-02-01T03:49:11;4.72;;;3.72;;
70342;SDS011;57767;42.068;24.752;2023-02-01T03:50:20;4.82;;;3.58;;
70342;SDS011;57767;42.068;24.752;2023-02-01T03:51:25;4.47;;;3.83;;
70342;SDS011;57767;42.068;24.752;2023-02-01T03:52:31;8.52;;;4.32;;
70342;SDS011;57767;42.068;24.752;2023-02-01T03:53:37;5.93;;;3.40;;
70342;SDS011;57767;42.068;24.752;2023-02-01T03:54:43;5.57;;;4.30;;
70342;SDS011;57767;42.068;24.752;2023-02-01T03:55:46;5.43;;;4.00;;
70342;SDS011;57767;42.068;24.752;2023-02-01T03:56:48;6.78;;;4.10;;
70342;SDS011;57767;42.068;24.752;2023-02-01T03:57:55;5.45;;;4.20;;
70342;SDS011;57767;42.068;24.752;2023-02-01T03:59:02;5.30;;;3.80;;
70342;SDS011;57767;42.068;24.752;2023-02-01T04:01:36;4.75;;;4.15;;
70342;SDS011;57767;42.068;24.752;2023-02-01T04:02:38;6.32;;;3.95;;
70342;SDS011;57767;42.068;24.752;2023-02-01T04:03:40;5.13;;;4.50;;
70342;SDS011;57767;42.068;24.752;2023-02-01T04:04:41;5.78;;;3.63;;
70342;SDS011;57767;42.068;24.752;2023-02-01T04:05:43;6.53;;;3.63;;
70342;SDS011;57767;42.068;24.752;2023-02-01T04:06:46;4.55;;;3.97;;
70342;SDS011;57767;42.068;24.752;2023-02-01T04:07:51;4.35;;;3.63;;
70342;SDS011;57767;42.068;24.752;2023-02-01T04:08:53;4.50;;;3.72;;
70342;SDS011;57767;42.068;24.752;2023-02-01T04:09:54;4.95;;;3.90;;
70342;SDS011;57767;42.068;24.752;2023-02-01T04:10:56;5.80;;;4.07;;
70342;SDS011;57767;42.068;24.752;2023-02-01T04:11:58;5.28;;;4.13;;
70342;SDS011;57767;42.068;24.752;2023-02-01T04:12:59;6.45;;;3.88;;
70342;SDS011;57767;42.068;24.752;2023-02-01T04:14:01;6.25;;;3.95;;
70342;SDS011;57767;42.068;24.752;2023-02-01T04:15:06;5.93;;;4.25;;
70342;SDS011;57767;42.068;24.752;2023-02-01T04:16:08;6.03;;;3.88;;
70342;SDS011;57767;42.068;24.752;2023-02-01T04:17:10;4.63;;;3.80;;
70342;SDS011;57767;42.068;24.752;2023-02-01T04:18:12;4.75;;;4.05;;
70342;SDS011;57767;42.068;24.752;2023-02-01T04:19:13;5.43;;;4.00;;
70342;SDS011;57767;42.068;24.752;2023-02-01T04:20:15;4.53;;;3.50;;
70342;SDS011;57767;42.068;24.752;2023-02-01T04:21:17;5.97;;;3.83;;
70342;SDS011;57767;42.068;24.752;2023-02-01T04:22:19;5.55;;;3.72;;
70342;SDS011;57767;42.068;24.752;2023-02-01T04:23:21;4.55;;;3.45;;
70342;SDS011;57767;42.068;24.752;2023-02-01T04:24:22;4.47;;;3.45;;
70342;SDS011;57767;42.068;24.752;2023-02-01T04:25:24;5.30;;;3.78;;
70342;SDS011;57767;42.068;24.752;2023-02-01T04:26:26;6.50;;;3.60;;
70342;SDS011;57767;42.068;24.752;2023-02-01T04:27:28;6.07;;;3.88;;
70342;SDS011;57767;42.068;24.752;2023-02-01T04:28:29;5.10;;;3.53;;
70342;SDS011;57767;42.068;24.752;2023-02-01T04:29:31;4.40;;;3.60;;
70342;SDS011;57767;42.068;24.752;2023-02-01T04:30:33;6.75;;;3.97;;
70342;SDS011;57767;42.068;24.752;2023-02-01T04:31:35;5.78;;;3.50;;
70342;SDS011;57767;42.068;24.752;2023-02-01T04:32:37;5.32;;;3.30;;
70342;SDS011;57767;42.068;24.752;2023-02-01T04:33:40;4.10;;;3.70;;
70342;SDS011;57767;42.068;24.752;2023-02-01T04:34:42;5.15;;;4.07;;
70342;SDS011;57767;42.068;24.752;2023-02-01T04:35:44;4.78;;;3.70;;
70342;SDS011;57767;42.068;24.752;2023-02-01T04:36:45;5.45;;;4.10;;
70342;SDS011;57767;42.068;24.752;2023-02-01T04:37:47;5.82;;;3.80;;
70342;SDS011;57767;42.068;24.752;2023-02-01T04:38:50;8.63;;;3.92;;
70342;SDS011;57767;42.068;24.752;2023-02-01T04:39:52;5.35;;;3.70;;
70342;SDS011;57767;42.068;24.752;2023-02-01T04:40:54;6.03;;;4.28;;
70342;SDS011;57767;42.068;24.752;2023-02-01T04:41:55;5.22;;;3.97;;
70342;SDS011;57767;42.068;24.752;2023-02-01T04:42:57;4.88;;;3.90;;
70342;SDS011;57767;42.068;24.752;2023-02-01T04:43:59;5.50;;;3.70;;
70342;SDS011;57767;42.068;24.752;2023-02-01T04:45:01;5.00;;;3.55;;
70342;SDS011;57767;42.068;24.752;2023-02-01T04:46:03;4.57;;;3.55;;
70342;SDS011;57767;42.068;24.752;2023-02-01T04:47:06;6.80;;;3.88;;
70342;SDS011;57767;42.068;24.752;2023-02-01T04:48:07;4.97;;;3.67;;
70342;SDS011;57767;42.068;24.752;2023-02-01T04:49:09;4.35;;;3.35;;
70342;SDS011;57767;42.068;24.752;2023-02-01T04:50:12;4.10;;;3.47;;
70342;SDS011;57767;42.068;24.752;2023-02-01T04:51:13;4.20;;;3.67;;
70342;SDS011;57767;42.068;24.752;2023-02-01T04:52:16;4.72;;;3.90;;
70342;SDS011;57767;42.068;24.752;2023-02-01T04:53:18;3.90;;;3.50;;
70342;SDS011;57767;42.068;24.752;2023-02-01T04:54:20;4.45;;;3.17;;
70342;SDS011;57767;42.068;24.752;2023-02-01T04:55:22;4.75;;;3.35;;
70342;SDS011;57767;42.068;24.752;2023-02-01T04:56:23;8.20;;;3.10;;
70342;SDS011;57767;42.068;24.752;2023-02-01T04:57:25;4.15;;;3.10;;
70342;SDS011;57767;42.068;24.752;2023-02-01T04:58:27;4.35;;;3.05;;
70342;SDS011;57767;42.068;24.752;2023-02-01T04:59:29;4.32;;;3.35;;
70342;SDS011;57767;42.068;24.752;2023-02-01T05:00:31;4.07;;;3.00;;
70342;SDS011;57767;42.068;24.752;2023-02-01T05:01:32;4.88;;;3.05;;
70342;SDS011;57767;42.068;24.752;2023-02-01T05:02:34;5.88;;;3.20;;
70342;SDS011;57767;42.068;24.752;2023-02-01T05:03:36;3.60;;;2.88;;
70342;SDS011;57767;42.068;24.752;2023-02-01T05:04:38;3.75;;;3.20;;
70342;SDS011;57767;42.068;24.752;2023-02-01T05:05:40;5.07;;;3.20;;
70342;SDS011;57767;42.068;24.752;2023-02-01T05:06:42;5.57;;;3.40;;
70342;SDS011;57767;42.068;24.752;2023-02-01T05:07:45;4.18;;;3.42;;
70342;SDS011;57767;42.068;24.752;2023-02-01T05:08:47;5.93;;;3.05;;
70342;SDS011;57767;42.068;24.752;2023-02-01T05:09:49;4.30;;;2.78;;
70342;SDS011;57767;42.068;24.752;2023-02-01T05:10:50;9.70;;;3.28;;
70342;SDS011;57767;42.068;24.752;2023-02-01T05:11:52;7.40;;;3.47;;
70342;SDS011;57767;42.068;24.752;2023-02-01T05:13:12;4.95;;;3.17;;
70342;SDS011;57767;42.068;24.752;2023-02-01T05:14:33;6.07;;;3.30;;
70342;SDS011;57767;42.068;24.752;2023-02-01T05:15:35;4.82;;;3.25;;
70342;SDS011;57767;42.068;24.752;2023-02-01T05:16:36;5.63;;;3.95;;
70342;SDS011;57767;42.068;24.752;2023-02-01T05:17:38;5.63;;;3.38;;
70342;SDS011;57767;42.068;24.752;2023-02-01T05:18:41;6.15;;;3.42;;
70342;SDS011;57767;42.068;24.752;2023-02-01T05:19:43;9.30;;;5.97;;
70342;SDS011;57767;42.068;24.752;2023-02-01T05:20:45;14.70;;;7.22;;
70342;SDS011;57767;42.068;24.752;2023-02-01T05:21:46;8.05;;;5.18;;
70342;SDS011;57767;42.068;24.752;2023-02-01T05:22:48;7.50;;;4.82;;
70342;SDS011;57767;42.068;24.752;2023-02-01T05:23:50;5.47;;;4.80;;
70342;SDS011;57767;42.068;24.752;2023-02-01T05:25:10;4.20;;;3.08;;
70342;SDS011;57767;42.068;24.752;2023-02-01T05:26:12;4.40;;;3.08;;
70342;SDS011;57767;42.068;24.752;2023-02-01T05:27:14;4.05;;;2.90;;
70342;SDS011;57767;42.068;24.752;2023-02-01T05:28:16;6.38;;;3.85;;
70342;SDS011;57767;42.068;24.752;2023-02-01T05:29:18;5.03;;;3.42;;
70342;SDS011;57767;42.068;24.752;2023-02-01T05:30:20;6.72;;;3.80;;
70342;SDS011;57767;42.068;24.752;2023-02-01T05:31:22;4.93;;;2.80;;
70342;SDS011;57767;42.068;24.752;2023-02-01T05:32:24;4.13;;;2.95;;
70342;SDS011;57767;42.068;24.752;2023-02-01T05:33:26;5.85;;;3.13;;
70342;SDS011;57767;42.068;24.752;2023-02-01T05:34:28;4.25;;;2.97;;
70342;SDS011;57767;42.068;24.752;2023-02-01T05:35:30;5.80;;;3.10;;
70342;SDS011;57767;42.068;24.752;2023-02-01T05:36:32;5.13;;;2.70;;
70342;SDS011;57767;42.068;24.752;2023-02-01T05:37:34;5.45;;;3.17;;
70342;SDS011;57767;42.068;24.752;2023-02-01T05:38:35;3.20;;;2.75;;
70342;SDS011;57767;42.068;24.752;2023-02-01T05:39:37;6.72;;;3.20;;
70342;SDS011;57767;42.068;24.752;2023-02-01T05:40:39;5.03;;;3.05;;
70342;SDS011;57767;42.068;24.752;2023-02-01T05:41:41;4.20;;;2.58;;
70342;SDS011;57767;42.068;24.752;2023-02-01T05:42:42;4.13;;;2.75;;
70342;SDS011;57767;42.068;24.752;2023-02-01T05:43:44;4.75;;;2.67;;
70342;SDS011;57767;42.068;24.752;2023-02-01T05:44:46;3.35;;;2.65;;
70342;SDS011;57767;42.068;24.752;2023-02-01T05:45:48;3.72;;;2.80;;
70342;SDS011;57767;42.068;24.752;2023-02-01T05:46:49;3.10;;;2.78;;
70342;SDS011;57767;42.068;24.752;2023-02-01T05:47:53;3.00;;;2.47;;
70342;SDS011;57767;42.068;24.752;2023-02-01T05:48:55;4.57;;;2.58;;
70342;SDS011;57767;42.068;24.752;2023-02-01T05:49:57;4.53;;;2.60;;
70342;SDS011;57767;42.068;24.752;2023-02-01T05:50:58;3.45;;;2.28;;
70342;SDS011;57767;42.068;24.752;2023-02-01T05:52:00;3.17;;;2.40;;
70342;SDS011;57767;42.068;24.752;2023-02-01T05:53:02;4.88;;;2.58;;
70342;SDS011;57767;42.068;24.752;2023-02-01T05:54:04;4.72;;;2.50;;
70342;SDS011;57767;42.068;24.752;2023-02-01T05:55:06;5.53;;;2.70;;
70342;SDS011;57767;42.068;24.752;2023-02-01T05:56:08;4.18;;;2.47;;
70342;SDS011;57767;42.068;24.752;2023-02-01T05:57:10;3.00;;;2.53;;
70342;SDS011;57767;42.068;24.752;2023-02-01T05:58:11;4.60;;;2.63;;
70342;SDS011;57767;42.068;24.752;2023-02-01T05:59:13;5.45;;;2.50;;
70342;SDS011;57767;42.068;24.752;2023-02-01T06:00:15;4.45;;;2.53;;
70342;SDS011;57767;42.068;24.752;2023-02-01T06:01:17;2.95;;;2.50;;
70342;SDS011;57767;42.068;24.752;2023-02-01T06:02:19;2.75;;;1.95;;
70342;SDS011;57767;42.068;24.752;2023-02-01T06:03:21;5.07;;;2.33;;
70342;SDS011;57767;42.068;24.752;2023-02-01T06:04:23;3.38;;;2.20;;
70342;SDS011;57767;42.068;24.752;2023-02-01T06:05:25;4.28;;;2.28;;
70342;SDS011;57767;42.068;24.752;2023-02-01T06:06:27;3.05;;;2.00;;
70342;SDS011;57767;42.068;24.752;2023-02-01T06:07:29;3.45;;;2.20;;
70342;SDS011;57767;42.068;24.752;2023-02-01T06:08:31;3.40;;;1.95;;
70342;SDS011;57767;42.068;24.752;2023-02-01T06:09:33;2.35;;;1.95;;
70342;SDS011;57767;42.068;24.752;2023-02-01T06:10:35;5.60;;;2.80;;
70342;SDS011;57767;42.068;24.752;2023-02-01T06:11:38;3.08;;;2.05;;
70342;SDS011;57767;42.068;24.752;2023-02-01T06:12:41;3.13;;;2.60;;
70342;SDS011;57767;42.068;24.752;2023-02-01T06:13:43;3.03;;;2.38;;
70342;SDS011;57767;42.068;24.752;2023-02-01T06:14:45;3.28;;;2.20;;
70342;SDS011;57767;42.068;24.752;2023-02-01T06:15:46;3.13;;;1.92;;
70342;SDS011;57767;42.068;24.752;2023-02-01T06:16:48;2.30;;;1.90;;
70342;SDS011;57767;42.068;24.752;2023-02-01T06:17:50;2.92;;;1.80;;
70342;SDS011;57767;42.068;24.752;2023-02-01T06:18:52;2.75;;;1.85;;
70342;SDS011;57767;42.068;24.752;2023-02-01T06:19:53;3.63;;;2.00;;
70342;SDS011;57767;42.068;24.752;2023-02-01T06:20:55;2.80;;;2.03;;
70342;SDS011;57767;42.068;24.752;2023-02-01T06:21:59;4.90;;;1.98;;
70342;SDS011;57767;42.068;24.752;2023-02-01T06:23:00;2.63;;;2.20;;
70342;SDS011;57767;42.068;24.752;2023-02-01T06:24:02;3.83;;;2.00;;
70342;SDS011;57767;42.068;24.752;2023-02-01T06:25:05;3.60;;;1.92;;
70342;SDS011;57767;42.068;24.752;2023-02-01T06:26:09;3.42;;;2.13;;
70342;SDS011;57767;42.068;24.752;2023-02-01T06:27:11;3.97;;;1.90;;
70342;SDS011;57767;42.068;24.752;2023-02-01T06:28:14;2.35;;;1.90;;
70342;SDS011;57767;42.068;24.752;2023-02-01T06:29:16;5.05;;;1.80;;
70342;SDS011;57767;42.068;24.752;2023-02-01T06:30:17;3.03;;;1.70;;
70342;SDS011;57767;42.068;24.752;2023-02-01T06:31:19;3.28;;;1.67;;
70342;SDS011;57767;42.068;24.752;2023-02-01T06:32:21;2.55;;;1.48;;
70342;SDS011;57767;42.068;24.752;2023-02-01T06:33:24;4.07;;;2.05;;
70342;SDS011;57767;42.068;24.752;2023-02-01T06:34:26;3.83;;;1.75;;
70342;SDS011;57767;42.068;24.752;2023-02-01T06:35:28;3.97;;;1.45;;
70342;SDS011;57767;42.068;24.752;2023-02-01T06:36:30;2.72;;;1.80;;
70342;SDS011;57767;42.068;24.752;2023-02-01T06:37:32;2.28;;;1.58;;
70342;SDS011;57767;42.068;24.752;2023-02-01T06:38:33;5.15;;;2.00;;
70342;SDS011;57767;42.068;24.752;2023-02-01T06:39:36;5.05;;;2.30;;
70342;SDS011;57767;42.068;24.752;2023-02-01T06:40:38;3.08;;;2.10;;
70342;SDS011;57767;42.068;24.752;2023-02-01T06:41:46;5.95;;;5.28;;
70342;SDS011;57767;42.068;24.752;2023-02-01T06:42:49;4.00;;;2.22;;
70342;SDS011;57767;42.068;24.752;2023-02-01T06:43:51;4.50;;;2.17;;
70342;SDS011;57767;42.068;24.752;2023-02-01T06:44:52;3.08;;;1.83;;
70342;SDS011;57767;42.068;24.752;2023-02-01T06:45:58;2.95;;;1.80;;
70342;SDS011;57767;42.068;24.752;2023-02-01T06:47:03;3.80;;;1.90;;
70342;SDS011;57767;42.068;24.752;2023-02-01T06:48:09;2.45;;;1.98;;
70342;SDS011;57767;42.068;24.752;2023-02-01T06:49:10;3.50;;;1.88;;
70342;SDS011;57767;42.068;24.752;2023-02-01T06:50:12;3.92;;;1.70;;
70342;SDS011;57767;42.068;24.752;2023-02-01T06:51:21;2.83;;;1.80;;
70342;SDS011;57767;42.068;24.752;2023-02-01T06:52:24;4.53;;;2.00;;
70342;SDS011;57767;42.068;24.752;2023-02-01T06:53:26;2.45;;;1.45;;
70342;SDS011;57767;42.068;24.752;2023-02-01T06:54:28;6.55;;;1.90;;
70342;SDS011;57767;42.068;24.752;2023-02-01T06:55:30;3.38;;;1.52;;